createdAt,value
2017-10-17T00:01:03.676Z,16.18
2017-10-17T00:03:31.190Z,15.96
2017-10-17T00:05:58.768Z,16.06
2017-10-17T00:08:26.377Z,16.16
2017-10-17T00:10:53.904Z,16.17
2017-10-17T00:13:21.704Z,16.10
2017-10-17T00:15:49.219Z,16.03
2017-10-17T00:18:16.815Z,15.97
2017-10-17T00:20:44.475Z,15.77
2017-10-17T00:23:12.138Z,15.72
2017-10-17T00:25:39.804Z,15.88
2017-10-17T00:28:07.666Z,15.73
2017-10-17T00:30:45.111Z,15.63
2017-10-17T00:33:15.502Z,15.70
2017-10-17T00:35:44.809Z,15.47
2017-10-17T00:38:14.123Z,15.46
2017-10-17T00:40:42.056Z,15.38
2017-10-17T00:43:16.511Z,15.49
2017-10-17T00:45:44.347Z,15.53
2017-10-17T00:48:17.795Z,15.44
2017-10-17T00:50:47.232Z,15.44
2017-10-17T00:53:15.588Z,15.33
2017-10-17T00:55:43.120Z,15.41
2017-10-17T00:58:11.006Z,15.32
2017-10-17T01:00:38.541Z,15.22
2017-10-17T01:03:06.068Z,15.16
2017-10-17T01:05:33.774Z,15.34
2017-10-17T01:08:01.299Z,15.29
2017-10-17T01:10:28.820Z,15.20
2017-10-17T01:12:56.706Z,15.42
2017-10-17T01:15:24.239Z,15.36
2017-10-17T01:17:51.926Z,15.55
2017-10-17T01:20:35.460Z,15.67
2017-10-17T01:23:04.542Z,15.55
2017-10-17T01:25:32.114Z,15.54
2017-10-17T01:28:03.789Z,15.31
2017-10-17T01:30:31.431Z,15.23
2017-10-17T01:32:58.963Z,15.31
2017-10-17T01:35:26.960Z,15.33
2017-10-17T01:37:54.486Z,15.13
2017-10-17T01:40:25.451Z,15.12
2017-10-17T01:42:53.044Z,15.15
2017-10-17T01:45:20.598Z,15.18
2017-10-17T01:47:48.114Z,15.18
2017-10-17T01:50:18.760Z,15.20
2017-10-17T01:52:47.115Z,15.15
2017-10-17T01:55:14.642Z,15.11
2017-10-17T01:57:46.067Z,15.05
2017-10-17T02:00:14.386Z,15.00
2017-10-17T02:02:41.911Z,14.94
2017-10-17T02:05:09.500Z,14.93
2017-10-17T02:07:37.887Z,14.88
2017-10-17T02:10:09.018Z,14.92
2017-10-17T02:12:36.647Z,15.20
2017-10-17T02:15:04.223Z,15.24
2017-10-17T02:17:33.432Z,15.28
2017-10-17T02:20:01.147Z,15.30
2017-10-17T02:22:39.768Z,15.31
2017-10-17T02:28:25.676Z,15.25
2017-10-17T02:30:54.811Z,15.13
2017-10-17T02:33:24.067Z,15.07
2017-10-17T02:35:51.727Z,15.07
2017-10-17T02:38:19.259Z,15.06
2017-10-17T02:40:48.364Z,14.96
2017-10-17T02:43:22.353Z,14.84
2017-10-17T02:45:49.962Z,14.75
2017-10-17T02:48:28.674Z,14.65
2017-10-17T02:50:56.336Z,14.54
2017-10-17T02:53:24.000Z,14.51
2017-10-17T02:55:52.640Z,14.49
2017-10-17T02:58:20.172Z,14.44
2017-10-17T03:00:47.766Z,14.33
2017-10-17T03:03:32.259Z,14.36
2017-10-17T03:05:59.793Z,14.31
2017-10-17T03:08:27.478Z,14.21
2017-10-17T03:10:55.346Z,14.01
2017-10-17T03:13:27.331Z,13.87
2017-10-17T03:15:56.915Z,13.48
2017-10-17T03:18:24.443Z,13.44
2017-10-17T03:20:53.832Z,13.44
2017-10-17T03:23:24.747Z,13.51
2017-10-17T03:25:52.272Z,13.44
2017-10-17T03:28:19.799Z,13.59
2017-10-17T03:30:51.176Z,13.51
2017-10-17T03:33:29.593Z,13.53
2017-10-17T03:35:57.459Z,13.79
2017-10-17T03:41:41.852Z,13.50
2017-10-17T03:44:14.949Z,13.38
2017-10-17T03:46:43.247Z,13.50
2017-10-17T03:49:28.571Z,13.32
2017-10-17T03:51:56.263Z,13.23
2017-10-17T03:54:26.700Z,13.44
2017-10-17T03:56:54.227Z,13.53
2017-10-17T03:59:25.975Z,13.48
2017-10-17T04:01:53.503Z,13.36
2017-10-17T04:04:27.568Z,13.47
2017-10-17T04:10:25.648Z,13.04
2017-10-17T04:12:53.964Z,13.15
2017-10-17T04:15:21.579Z,13.20
2017-10-17T04:17:54.259Z,13.25
2017-10-17T04:20:31.375Z,13.15
2017-10-17T04:23:10.907Z,13.33
2017-10-17T04:25:51.215Z,13.19
2017-10-17T04:28:49.521Z,13.26
2017-10-17T04:34:35.227Z,12.97
2017-10-17T04:37:20.459Z,12.88
2017-10-17T04:39:48.567Z,13.02
2017-10-17T04:42:28.883Z,12.98
2017-10-17T04:48:44.507Z,12.91
2017-10-17T04:51:23.132Z,12.81
2017-10-17T04:53:59.279Z,12.82
2017-10-17T04:56:27.076Z,12.81
2017-10-17T05:02:15.919Z,12.90
2017-10-17T05:05:09.748Z,12.82
2017-10-17T05:10:52.525Z,12.95
2017-10-17T05:16:49.039Z,13.26
2017-10-17T05:22:22.660Z,13.01
2017-10-17T05:24:52.266Z,13.17
2017-10-17T05:30:26.892Z,13.00
2017-10-17T05:33:03.503Z,12.70
2017-10-17T05:35:31.287Z,12.79
2017-10-17T05:37:58.898Z,12.78
2017-10-17T05:40:26.692Z,13.01
2017-10-17T05:42:54.415Z,12.94
2017-10-17T05:45:21.935Z,12.77
2017-10-17T05:47:52.979Z,12.78
2017-10-17T05:55:30.128Z,12.82
2017-10-17T05:57:57.812Z,12.95
2017-10-17T06:00:25.372Z,12.78
2017-10-17T06:02:52.904Z,12.69
2017-10-17T06:05:20.627Z,12.69
2017-10-17T06:07:48.154Z,12.43
2017-10-17T06:10:15.711Z,12.54
2017-10-17T06:12:43.419Z,12.47
2017-10-17T06:15:10.956Z,12.51
2017-10-17T06:17:38.491Z,12.65
2017-10-17T06:20:06.064Z,12.59
2017-10-17T06:22:33.596Z,12.69
2017-10-17T06:25:01.135Z,12.91
2017-10-17T06:27:28.810Z,13.06
2017-10-17T06:29:56.389Z,13.01
2017-10-17T06:32:23.920Z,12.83
2017-10-17T06:34:51.504Z,12.90
2017-10-17T06:37:19.035Z,12.82
2017-10-17T06:39:46.571Z,12.84
2017-10-17T06:42:14.302Z,13.02
2017-10-17T06:44:41.846Z,12.95
2017-10-17T06:47:09.374Z,12.92
2017-10-17T06:49:36.973Z,13.17
2017-10-17T06:52:04.503Z,13.14
2017-10-17T06:54:32.039Z,13.34
2017-10-17T06:56:59.728Z,13.24
2017-10-17T06:59:27.271Z,13.30
2017-10-17T07:01:54.811Z,13.35
2017-10-17T07:04:22.822Z,13.33
2017-10-17T07:06:50.395Z,13.37
2017-10-17T07:09:17.960Z,13.52
2017-10-17T07:11:45.560Z,13.52
2017-10-17T07:14:13.100Z,13.77
2017-10-17T07:16:40.626Z,13.75
2017-10-17T07:19:08.434Z,13.87
2017-10-17T07:21:35.960Z,13.96
2017-10-17T07:24:03.559Z,14.06
2017-10-17T07:26:31.478Z,14.00
2017-10-17T07:28:59.012Z,14.10
2017-10-17T07:31:27.006Z,14.66
2017-10-17T07:33:54.747Z,14.98
2017-10-17T07:36:22.279Z,15.22
2017-10-17T07:38:49.819Z,15.30
2017-10-17T07:41:17.395Z,15.45
2017-10-17T07:43:44.938Z,15.78
2017-10-17T07:46:12.479Z,15.82
2017-10-17T07:48:40.058Z,15.94
2017-10-17T07:51:07.612Z,16.19
2017-10-17T07:53:35.179Z,16.12
2017-10-17T07:56:02.767Z,16.32
2017-10-17T07:58:30.304Z,16.31
2017-10-17T08:00:57.832Z,16.57
2017-10-17T08:03:25.420Z,16.83
2017-10-17T08:05:52.947Z,17.03
2017-10-17T08:08:20.583Z,17.33
2017-10-17T08:10:48.336Z,17.39
2017-10-17T08:13:15.867Z,17.65
2017-10-17T08:15:43.404Z,17.76
2017-10-17T08:18:11.127Z,17.70
2017-10-17T08:20:38.656Z,17.97
2017-10-17T08:23:06.201Z,17.95
2017-10-17T08:25:33.919Z,18.23
2017-10-17T08:28:01.480Z,18.40
2017-10-17T08:30:29.038Z,18.64
2017-10-17T08:32:56.784Z,18.87
2017-10-17T08:35:24.320Z,19.15
2017-10-17T08:37:51.847Z,19.19
2017-10-17T08:40:19.786Z,19.44
2017-10-17T08:42:47.315Z,19.50
2017-10-17T08:45:14.845Z,19.67
2017-10-17T08:47:42.491Z,19.62
2017-10-17T08:50:10.031Z,19.53
2017-10-17T08:52:37.559Z,20.01
2017-10-17T08:55:05.328Z,20.17
2017-10-17T08:57:32.907Z,20.76
2017-10-17T09:00:00.465Z,20.43
2017-10-17T09:02:28.207Z,20.80
2017-10-17T09:04:55.735Z,21.24
2017-10-17T09:07:23.270Z,21.24
2017-10-17T09:09:51.091Z,22.83
2017-10-17T09:12:18.628Z,26.94
2017-10-17T09:14:46.160Z,30.57
2017-10-17T09:17:13.742Z,32.43
2017-10-17T09:19:41.266Z,34.69
2017-10-17T09:22:08.792Z,36.96
2017-10-17T09:24:36.546Z,38.14
2017-10-17T09:27:04.129Z,38.00
2017-10-17T09:29:31.686Z,39.20
2017-10-17T09:31:59.431Z,39.72
2017-10-17T09:34:26.963Z,40.51
2017-10-17T09:36:54.495Z,39.89
2017-10-17T09:39:22.129Z,40.30
2017-10-17T09:41:49.686Z,41.01
2017-10-17T09:44:17.242Z,41.45
2017-10-17T09:46:45.011Z,42.66
2017-10-17T09:49:12.552Z,43.25
2017-10-17T09:51:40.096Z,42.98
2017-10-17T09:54:07.755Z,43.59
2017-10-17T09:56:35.291Z,44.13
2017-10-17T09:59:02.848Z,44.86
2017-10-17T10:01:30.503Z,45.05
2017-10-17T10:03:58.037Z,45.79
2017-10-17T10:06:25.580Z,46.82
2017-10-17T10:08:53.324Z,46.77
2017-10-17T10:11:20.843Z,47.33
2017-10-17T10:13:48.384Z,46.68
2017-10-17T10:16:15.963Z,46.34
2017-10-17T10:18:43.498Z,45.42
2017-10-17T10:21:11.023Z,45.51
2017-10-17T10:23:38.713Z,45.89
2017-10-17T10:26:06.238Z,46.12
2017-10-17T10:28:33.763Z,46.96
2017-10-17T10:31:01.330Z,44.84
2017-10-17T10:33:28.859Z,45.37
2017-10-17T10:35:56.908Z,45.44
2017-10-17T10:38:24.674Z,45.13
2017-10-17T10:40:52.195Z,46.22
2017-10-17T10:43:19.731Z,46.27
2017-10-17T10:45:47.300Z,45.17
2017-10-17T10:48:14.823Z,45.83
2017-10-17T10:50:42.347Z,45.70
2017-10-17T10:53:09.911Z,43.54
2017-10-17T10:55:37.451Z,44.46
2017-10-17T10:58:04.976Z,45.48
2017-10-17T11:00:32.792Z,46.06
2017-10-17T11:03:00.320Z,44.88
2017-10-17T11:05:27.851Z,44.88
2017-10-17T11:08:12.411Z,44.48
2017-10-17T11:10:39.924Z,44.51
2017-10-17T11:13:07.441Z,43.14
2017-10-17T11:15:35.161Z,44.12
2017-10-17T11:18:02.683Z,44.39
2017-10-17T11:20:30.195Z,45.58
2017-10-17T11:22:58.139Z,43.83
2017-10-17T11:25:25.656Z,43.78
2017-10-17T11:27:53.167Z,43.97
2017-10-17T11:30:20.917Z,42.71
2017-10-17T11:32:48.434Z,42.10
2017-10-17T11:35:16.046Z,41.62
2017-10-17T11:37:43.792Z,42.97
2017-10-17T11:40:11.470Z,42.62
2017-10-17T11:45:42.059Z,44.44
2017-10-17T11:48:09.782Z,44.35
2017-10-17T11:50:37.291Z,44.47
2017-10-17T11:53:04.807Z,44.16
2017-10-17T11:55:32.347Z,43.44
2017-10-17T11:57:59.875Z,41.93
2017-10-17T12:00:27.555Z,42.86
2017-10-17T12:02:55.327Z,41.57
2017-10-17T12:05:22.903Z,41.82
2017-10-17T12:07:50.460Z,41.85
2017-10-17T12:10:18.005Z,40.35
2017-10-17T12:12:45.530Z,38.30
2017-10-17T12:15:13.063Z,34.87
2017-10-17T12:17:40.615Z,32.59
2017-10-17T12:20:08.179Z,30.97
2017-10-17T12:22:35.709Z,29.72
2017-10-17T12:25:03.460Z,29.27
2017-10-17T12:27:31.972Z,28.65
2017-10-17T12:29:59.504Z,28.16
2017-10-17T12:32:27.128Z,27.58
2017-10-17T12:34:54.651Z,27.24
2017-10-17T12:37:22.172Z,26.58
2017-10-17T12:39:49.754Z,26.65
2017-10-17T12:42:17.275Z,26.58
2017-10-17T12:44:44.874Z,26.61
2017-10-17T12:47:12.617Z,26.24
2017-10-17T12:49:40.143Z,25.88
2017-10-17T12:52:07.667Z,25.79
2017-10-17T12:54:35.406Z,25.80
2017-10-17T12:57:02.927Z,26.03
2017-10-17T12:59:30.454Z,26.05
2017-10-17T13:01:58.382Z,25.86
2017-10-17T13:04:25.898Z,25.70
2017-10-17T13:06:53.929Z,25.89
2017-10-17T13:09:21.591Z,25.90
2017-10-17T13:11:49.456Z,25.97
2017-10-17T13:14:17.023Z,25.60
2017-10-17T13:16:44.667Z,25.54
2017-10-17T13:19:12.237Z,25.97
2017-10-17T13:21:39.813Z,25.76
2017-10-17T13:24:07.380Z,25.98
2017-10-17T13:26:34.900Z,25.78
2017-10-17T13:29:02.414Z,25.76
2017-10-17T13:31:30.115Z,25.68
2017-10-17T13:33:57.634Z,25.78
2017-10-17T13:36:25.170Z,25.94
2017-10-17T13:38:53.222Z,25.91
2017-10-17T13:41:20.768Z,25.84
2017-10-17T13:43:48.288Z,25.76
2017-10-17T13:46:16.187Z,25.86
2017-10-17T13:48:44.687Z,25.89
2017-10-17T13:51:12.249Z,25.82
2017-10-17T13:53:40.105Z,25.78
2017-10-17T13:56:07.631Z,25.61
2017-10-17T13:58:35.157Z,25.82
2017-10-17T14:01:02.812Z,25.77
2017-10-17T14:03:30.349Z,25.83
2017-10-17T14:05:57.909Z,25.95
2017-10-17T14:08:25.877Z,25.72
2017-10-17T14:10:53.437Z,25.84
2017-10-17T14:13:20.996Z,25.84
2017-10-17T14:15:48.760Z,25.50
2017-10-17T14:18:16.318Z,25.73
2017-10-17T14:20:43.878Z,25.61
2017-10-17T14:23:11.623Z,25.58
2017-10-17T14:25:39.154Z,25.16
2017-10-17T14:28:06.679Z,25.29
2017-10-17T14:30:34.420Z,25.43
2017-10-17T14:33:01.980Z,25.43
2017-10-17T14:35:29.539Z,25.44
2017-10-17T14:37:57.119Z,25.19
2017-10-17T14:40:24.699Z,25.29
2017-10-17T14:42:52.263Z,25.29
2017-10-17T14:45:19.964Z,25.22
2017-10-17T14:47:47.541Z,24.92
2017-10-17T14:50:15.093Z,25.04
2017-10-17T14:52:42.968Z,24.89
2017-10-17T14:55:10.630Z,24.97
2017-10-17T14:57:38.189Z,25.06
2017-10-17T15:00:05.953Z,24.83
2017-10-17T15:02:33.510Z,24.94
2017-10-17T15:05:01.070Z,24.94
2017-10-17T15:07:28.831Z,24.83
2017-10-17T15:09:56.802Z,24.79
2017-10-17T15:12:25.278Z,24.75
2017-10-17T15:14:52.840Z,24.50
2017-10-17T15:17:20.401Z,24.53
2017-10-17T15:19:48.065Z,24.44
2017-10-17T15:22:15.808Z,24.35
2017-10-17T15:24:43.396Z,24.44
2017-10-17T15:27:10.951Z,24.13
2017-10-17T15:29:38.614Z,24.32
2017-10-17T15:32:06.164Z,24.22
2017-10-17T15:34:33.724Z,23.98
2017-10-17T15:37:01.292Z,23.98
2017-10-17T15:39:28.841Z,23.91
2017-10-17T15:41:56.401Z,23.82
2017-10-17T15:44:24.268Z,23.69
2017-10-17T15:46:51.820Z,23.58
2017-10-17T15:49:19.332Z,23.39
2017-10-17T15:51:47.046Z,23.31
2017-10-17T15:54:14.607Z,23.22
2017-10-17T15:56:42.167Z,23.10
2017-10-17T15:59:10.055Z,22.98
2017-10-17T16:01:37.592Z,22.83
2017-10-17T16:04:05.152Z,22.69
2017-10-17T16:06:33.239Z,22.58
2017-10-17T16:09:00.788Z,22.47
2017-10-17T16:11:28.742Z,22.37
2017-10-17T16:13:56.471Z,22.24
2017-10-17T16:16:24.176Z,22.11
2017-10-17T16:18:51.745Z,21.95
2017-10-17T16:21:19.602Z,21.84
2017-10-17T16:23:47.284Z,21.73
2017-10-17T16:26:14.825Z,21.60
2017-10-17T16:28:42.585Z,21.48
2017-10-17T16:31:10.146Z,21.37
2017-10-17T16:33:37.772Z,21.26
2017-10-17T16:36:05.674Z,21.16
2017-10-17T16:38:33.230Z,21.05
2017-10-17T16:41:00.789Z,20.95
2017-10-17T16:43:28.368Z,20.86
2017-10-17T16:45:56.012Z,20.76
2017-10-17T16:48:23.581Z,20.69
2017-10-17T16:50:51.419Z,20.62
2017-10-17T16:53:18.947Z,20.56
2017-10-17T16:55:46.507Z,20.47
2017-10-17T16:58:14.229Z,20.34
2017-10-17T17:00:41.878Z,20.19
2017-10-17T17:03:09.645Z,20.09
2017-10-17T17:05:37.612Z,19.96
2017-10-17T17:08:05.461Z,19.86
2017-10-17T17:10:34.162Z,19.76
2017-10-17T17:13:02.130Z,19.69
2017-10-17T17:15:29.711Z,19.63
2017-10-17T17:17:57.466Z,19.57
2017-10-17T17:20:25.595Z,19.54
2017-10-17T17:22:53.500Z,19.57
2017-10-17T17:25:21.363Z,19.37
2017-10-17T17:27:49.219Z,19.46
2017-10-17T17:30:16.990Z,19.43
2017-10-17T17:32:44.613Z,19.19
2017-10-17T17:35:12.655Z,19.14
2017-10-17T17:37:40.393Z,19.06
2017-10-17T17:40:08.008Z,19.02
2017-10-17T17:42:36.136Z,18.98
2017-10-17T17:45:03.989Z,18.93
2017-10-17T17:47:31.747Z,18.88
2017-10-17T17:49:59.921Z,18.86
2017-10-17T17:52:27.492Z,18.82
2017-10-17T17:54:55.041Z,18.79
2017-10-17T17:57:23.043Z,18.70
2017-10-17T17:59:50.773Z,18.79
2017-10-17T18:02:18.367Z,18.76
2017-10-17T18:04:46.506Z,18.83
2017-10-17T18:07:14.278Z,18.79
2017-10-17T18:09:42.046Z,18.85
2017-10-17T18:12:10.105Z,18.74
2017-10-17T18:14:37.870Z,18.62
2017-10-17T18:17:05.756Z,18.55
2017-10-17T18:19:34.130Z,18.48
2017-10-17T18:22:01.894Z,18.27
2017-10-17T18:24:29.745Z,18.46
2017-10-17T18:26:58.169Z,18.53
2017-10-17T18:29:26.570Z,18.33
2017-10-17T18:31:54.381Z,18.24
2017-10-17T18:34:22.245Z,18.10
2017-10-17T18:36:50.219Z,17.99
2017-10-17T18:39:17.981Z,17.90
2017-10-17T18:41:46.147Z,17.83
2017-10-17T18:44:13.915Z,17.79
2017-10-17T18:46:41.692Z,17.74
2017-10-17T18:49:09.846Z,17.67
2017-10-17T18:51:37.545Z,17.65
2017-10-17T18:54:05.275Z,17.52
2017-10-17T18:56:33.241Z,17.33
2017-10-17T18:59:00.905Z,17.29
2017-10-17T19:01:28.763Z,17.28
2017-10-17T19:03:56.658Z,17.21
2017-10-17T19:06:24.803Z,17.24
2017-10-17T19:08:53.433Z,17.11
2017-10-17T19:11:22.686Z,17.14
2017-10-17T19:13:50.461Z,17.20
2017-10-17T19:16:18.234Z,17.05
2017-10-17T19:18:46.309Z,16.98
2017-10-17T19:21:14.254Z,16.88
2017-10-17T19:23:42.325Z,16.90
2017-10-17T19:26:10.431Z,16.77
2017-10-17T19:28:38.280Z,16.68
2017-10-17T19:31:06.231Z,16.72
2017-10-17T19:33:34.527Z,16.71
2017-10-17T19:36:03.092Z,16.64
2017-10-17T19:38:31.469Z,16.50
2017-10-17T19:40:59.560Z,16.51
2017-10-17T19:43:27.408Z,16.46
2017-10-17T19:45:55.274Z,16.38
2017-10-17T19:48:23.798Z,16.38
2017-10-17T19:50:51.656Z,16.30
2017-10-17T19:53:20.510Z,16.29
2017-10-17T19:55:48.491Z,16.21
2017-10-17T19:58:16.857Z,16.13
2017-10-17T20:00:44.743Z,16.03
2017-10-17T20:03:13.171Z,16.08
2017-10-17T20:05:41.092Z,16.04
2017-10-17T20:08:09.450Z,16.00
2017-10-17T20:10:37.625Z,16.04
2017-10-17T20:13:05.494Z,16.04
2017-10-17T20:15:33.254Z,16.01
2017-10-17T20:18:01.239Z,15.97
2017-10-17T20:20:29.921Z,15.83
2017-10-17T20:22:57.680Z,15.68
2017-10-17T20:25:25.766Z,15.73
2017-10-17T20:27:53.493Z,15.74
2017-10-17T20:32:48.732Z,15.71
2017-10-17T20:35:16.491Z,15.63
2017-10-17T20:37:44.257Z,15.43
2017-10-17T20:40:12.430Z,15.53
2017-10-17T20:42:40.150Z,15.60
2017-10-17T20:45:08.059Z,15.40
2017-10-17T20:47:36.237Z,15.38
2017-10-17T20:50:04.714Z,15.25
2017-10-17T20:52:32.686Z,15.17
2017-10-17T20:55:00.761Z,15.18
2017-10-17T20:57:28.344Z,15.20
2017-10-17T20:59:56.088Z,15.09
2017-10-17T21:02:24.250Z,15.17
2017-10-17T21:04:51.851Z,15.18
2017-10-17T21:07:19.581Z,14.90
2017-10-17T21:09:47.486Z,14.98
2017-10-17T21:12:15.055Z,15.08
2017-10-17T21:14:42.627Z,15.12
2017-10-17T21:17:10.530Z,15.14
2017-10-17T21:19:38.108Z,15.08
2017-10-17T21:22:05.703Z,15.07
2017-10-17T21:24:33.494Z,15.17
2017-10-17T21:27:01.072Z,15.14
2017-10-17T21:29:28.639Z,15.25
2017-10-17T21:31:56.395Z,15.07
2017-10-17T21:34:23.923Z,15.13
2017-10-17T21:36:51.454Z,14.95
2017-10-17T21:39:19.174Z,14.79
2017-10-17T21:41:46.748Z,14.69
2017-10-17T21:44:14.303Z,14.63
2017-10-17T21:46:42.157Z,14.45
2017-10-17T21:49:09.716Z,14.52
2017-10-17T21:51:37.275Z,14.53
2017-10-17T21:54:05.020Z,14.51
2017-10-17T21:56:32.600Z,14.50
2017-10-17T21:59:00.160Z,14.56
2017-10-17T22:01:28.015Z,14.54
2017-10-17T22:03:55.556Z,14.69
2017-10-17T22:06:23.098Z,14.79
2017-10-17T22:08:50.917Z,14.79
2017-10-17T22:11:18.455Z,14.78
2017-10-17T22:13:46.004Z,14.79
2017-10-17T22:16:13.600Z,14.50
2017-10-17T22:18:41.144Z,14.68
2017-10-17T22:21:08.675Z,14.75
2017-10-17T22:23:36.248Z,14.69
2017-10-17T22:26:03.821Z,14.63
2017-10-17T22:28:31.381Z,14.63
2017-10-17T22:30:58.960Z,14.44
2017-10-17T22:33:26.494Z,14.47
2017-10-17T22:35:54.031Z,14.44
2017-10-17T22:38:21.908Z,14.33
2017-10-17T22:40:49.431Z,14.34
2017-10-17T22:43:16.955Z,14.21
2017-10-17T22:45:44.805Z,14.28
2017-10-17T22:48:12.365Z,14.15
2017-10-17T22:50:39.925Z,13.91
2017-10-17T22:53:07.517Z,13.83
2017-10-17T22:55:35.043Z,13.84
2017-10-17T22:58:02.567Z,13.68
2017-10-17T23:00:30.467Z,13.63
2017-10-17T23:02:57.994Z,13.74
2017-10-17T23:05:25.515Z,13.81
2017-10-17T23:07:53.145Z,13.84
2017-10-17T23:10:20.705Z,13.89
2017-10-17T23:12:48.268Z,13.92
2017-10-17T23:15:15.856Z,13.79
2017-10-17T23:17:55.158Z,14.00
2017-10-17T23:20:38.672Z,14.01
2017-10-17T23:23:06.251Z,13.92
2017-10-17T23:25:33.812Z,14.07
2017-10-17T23:28:01.395Z,14.04
2017-10-17T23:30:28.926Z,13.97
2017-10-17T23:32:56.487Z,13.97
2017-10-17T23:35:24.253Z,13.87
2017-10-17T23:37:51.809Z,13.86
2017-10-17T23:40:19.373Z,13.90
2017-10-17T23:42:46.946Z,13.64
2017-10-17T23:45:14.486Z,13.64
2017-10-17T23:47:42.003Z,13.66
2017-10-17T23:50:09.809Z,13.56
2017-10-17T23:52:37.370Z,13.48
2017-10-17T23:55:04.931Z,13.67
2017-10-17T23:57:32.579Z,13.72
